createdAt,value
2019-03-24T00:04:06.225Z,8.48
2019-03-24T00:06:35.685Z,8.47
2019-03-24T00:09:06.818Z,8.48
2019-03-24T00:11:36.275Z,8.52
2019-03-24T00:14:08.705Z,8.62
2019-03-24T00:16:38.177Z,8.65
2019-03-24T00:19:07.634Z,8.66
2019-03-24T00:21:37.102Z,8.73
2019-03-24T00:24:06.588Z,8.76
2019-03-24T00:26:36.141Z,8.77
2019-03-24T00:29:05.607Z,8.75
2019-03-24T00:31:35.419Z,8.83
2019-03-24T00:34:04.909Z,8.90
2019-03-24T00:36:34.366Z,8.97
2019-03-24T00:39:05.112Z,9.02
2019-03-24T00:41:34.946Z,8.96
2019-03-24T00:44:04.407Z,8.95
2019-03-24T00:46:33.874Z,8.98
2019-03-24T00:49:03.795Z,9.10
2019-03-24T00:51:33.302Z,9.08
2019-03-24T00:54:02.721Z,9.10
2019-03-24T00:56:32.174Z,9.07
2019-03-24T00:59:01.651Z,9.14
2019-03-24T01:01:31.106Z,9.25
2019-03-24T01:04:00.715Z,9.30
2019-03-24T01:06:30.198Z,9.27
2019-03-24T01:08:59.669Z,9.30
2019-03-24T01:11:29.157Z,9.37
2019-03-24T01:13:59.455Z,9.40
2019-03-24T01:16:31.478Z,9.43
2019-03-24T01:19:01.841Z,9.41
2019-03-24T01:21:31.320Z,9.39
2019-03-24T01:24:01.071Z,9.47
2019-03-24T01:26:30.886Z,9.43
2019-03-24T01:29:00.337Z,9.40
2019-03-24T01:31:29.826Z,9.37
2019-03-24T01:33:59.285Z,9.35
2019-03-24T01:36:29.008Z,9.37
2019-03-24T01:38:58.630Z,9.34
2019-03-24T01:41:28.106Z,9.30
2019-03-24T01:43:57.564Z,9.34
2019-03-24T01:46:27.193Z,9.37
2019-03-24T01:48:56.952Z,9.33
2019-03-24T01:51:26.432Z,9.35
2019-03-24T01:53:55.895Z,9.33
2019-03-24T01:56:25.350Z,9.35
2019-03-24T01:58:54.908Z,9.31
2019-03-24T02:01:24.385Z,9.25
2019-03-24T02:03:54.118Z,9.33
2019-03-24T02:06:23.795Z,9.32
2019-03-24T02:08:53.437Z,9.34
2019-03-24T02:11:23.347Z,9.35
2019-03-24T02:13:53.339Z,9.34
2019-03-24T02:16:23.257Z,9.31
2019-03-24T02:18:53.276Z,9.30
2019-03-24T02:21:23.292Z,9.32
2019-03-24T02:23:53.105Z,9.27
2019-03-24T02:26:22.738Z,9.24
2019-03-24T02:28:52.475Z,9.21
2019-03-24T02:31:22.213Z,9.23
2019-03-24T02:33:51.693Z,9.25
2019-03-24T02:36:21.561Z,9.22
2019-03-24T02:38:51.386Z,9.24
2019-03-24T02:41:21.203Z,9.23
2019-03-24T02:43:50.651Z,9.27
2019-03-24T02:46:24.556Z,9.27
2019-03-24T02:48:51.570Z,9.22
2019-03-24T02:51:21.044Z,9.23
2019-03-24T02:53:50.629Z,9.26
2019-03-24T02:56:20.100Z,9.25
2019-03-24T02:58:49.550Z,9.31
2019-03-24T03:01:19.031Z,9.31
2019-03-24T03:03:48.481Z,9.28
2019-03-24T03:06:17.941Z,9.26
2019-03-24T03:08:47.589Z,9.25
2019-03-24T03:11:18.435Z,9.27
2019-03-24T03:13:47.907Z,9.21
2019-03-24T03:16:17.370Z,9.20
2019-03-24T03:18:46.841Z,9.17
2019-03-24T03:21:16.326Z,9.22
2019-03-24T03:23:45.824Z,9.15
2019-03-24T03:26:15.278Z,9.09
2019-03-24T03:28:44.733Z,9.09
2019-03-24T03:31:14.224Z,9.06
2019-03-24T03:33:43.690Z,9.09
2019-03-24T03:36:13.497Z,8.99
2019-03-24T03:38:42.961Z,8.98
2019-03-24T03:41:12.497Z,8.94
2019-03-24T03:43:41.942Z,8.94
2019-03-24T03:46:11.406Z,8.96
2019-03-24T03:48:41.245Z,8.93
2019-03-24T03:51:10.726Z,8.98
2019-03-24T03:53:40.571Z,8.91
2019-03-24T03:56:10.319Z,8.90
2019-03-24T03:58:39.796Z,8.84
2019-03-24T04:01:09.282Z,8.78
2019-03-24T04:03:39.401Z,8.84
2019-03-24T04:06:08.859Z,8.86
2019-03-24T04:08:38.338Z,8.88
2019-03-24T04:11:07.982Z,8.86
2019-03-24T04:13:37.442Z,8.85
2019-03-24T04:16:06.941Z,8.89
2019-03-24T04:18:47.819Z,8.80
2019-03-24T04:21:39.103Z,8.68
2019-03-24T04:24:21.076Z,8.55
2019-03-24T04:27:02.886Z,8.62
2019-03-24T04:29:43.849Z,8.60
2019-03-24T04:32:26.217Z,8.53
2019-03-24T04:35:08.108Z,8.55
2019-03-24T04:38:00.906Z,8.59
2019-03-24T04:40:33.163Z,8.67
2019-03-24T04:43:02.894Z,8.75
2019-03-24T04:45:32.512Z,8.81
2019-03-24T04:48:01.979Z,8.79
2019-03-24T04:50:31.561Z,8.72
2019-03-24T04:53:01.193Z,8.68
2019-03-24T04:55:30.720Z,8.71
2019-03-24T04:58:00.564Z,8.75
2019-03-24T05:00:37.759Z,8.77
2019-03-24T05:03:07.216Z,8.83
2019-03-24T05:05:37.388Z,8.86
2019-03-24T05:08:07.511Z,8.81
2019-03-24T05:10:36.957Z,8.78
2019-03-24T05:13:06.417Z,8.79
2019-03-24T05:15:35.863Z,8.78
2019-03-24T05:18:05.325Z,8.78
2019-03-24T05:20:34.784Z,8.80
2019-03-24T05:23:04.258Z,8.80
2019-03-24T05:25:33.721Z,8.80
2019-03-24T05:28:03.546Z,8.78
2019-03-24T05:30:33.005Z,8.80
2019-03-24T05:33:02.458Z,8.85
2019-03-24T05:35:31.911Z,8.88
2019-03-24T05:38:01.418Z,8.92
2019-03-24T05:40:30.863Z,9.01
2019-03-24T05:43:00.331Z,9.08
2019-03-24T05:45:29.789Z,8.97
2019-03-24T05:47:59.596Z,9.00
2019-03-24T05:50:29.049Z,9.04
2019-03-24T05:52:58.519Z,9.09
2019-03-24T05:55:28.216Z,9.07
2019-03-24T05:57:58.030Z,9.02
2019-03-24T06:00:27.489Z,9.06
2019-03-24T06:02:57.394Z,9.06
2019-03-24T06:05:26.831Z,9.08
2019-03-24T06:07:56.299Z,9.07
2019-03-24T06:10:25.790Z,9.18
2019-03-24T06:12:55.618Z,9.15
2019-03-24T06:15:25.082Z,9.16
2019-03-24T06:17:54.620Z,9.16
2019-03-24T06:20:24.084Z,9.14
2019-03-24T06:22:53.543Z,9.19
2019-03-24T06:25:23.018Z,9.22
2019-03-24T06:27:52.481Z,9.19
2019-03-24T06:30:22.812Z,9.18
2019-03-24T06:32:52.277Z,9.25
2019-03-24T06:35:21.828Z,9.35
2019-03-24T06:37:51.277Z,9.34
2019-03-24T06:40:20.732Z,9.40
2019-03-24T06:42:50.215Z,9.39
2019-03-24T06:45:27.915Z,9.37
2019-03-24T06:47:57.955Z,9.46
2019-03-24T06:50:21.982Z,9.52
2019-03-24T06:52:51.770Z,9.60
2019-03-24T06:55:21.582Z,9.58
2019-03-24T06:57:51.060Z,9.66
2019-03-24T07:00:20.595Z,9.68
2019-03-24T07:02:50.064Z,9.73
2019-03-24T07:05:19.544Z,9.74
2019-03-24T07:07:49.015Z,9.78
2019-03-24T07:10:18.474Z,9.85
2019-03-24T07:12:48.003Z,9.84
2019-03-24T07:15:17.458Z,9.95
2019-03-24T07:17:46.927Z,10.03
2019-03-24T07:20:16.774Z,10.10
2019-03-24T07:22:46.257Z,10.14
2019-03-24T07:25:15.700Z,10.21
2019-03-24T07:27:45.207Z,10.35
2019-03-24T07:30:14.847Z,10.19
2019-03-24T07:32:44.587Z,10.29
2019-03-24T07:35:14.044Z,10.47
2019-03-24T07:37:43.507Z,10.40
2019-03-24T07:40:13.308Z,10.07
2019-03-24T07:42:43.124Z,10.16
2019-03-24T07:45:12.911Z,10.26
2019-03-24T07:47:42.381Z,10.40
2019-03-24T07:50:12.456Z,10.62
2019-03-24T07:52:41.926Z,10.68
2019-03-24T07:55:11.524Z,10.61
2019-03-24T07:57:40.988Z,10.42
2019-03-24T08:00:11.497Z,10.20
2019-03-24T08:02:50.992Z,10.17
2019-03-24T08:05:15.471Z,10.18
2019-03-24T08:07:44.944Z,10.42
2019-03-24T08:10:14.455Z,10.55
2019-03-24T08:12:43.950Z,10.67
2019-03-24T08:15:23.821Z,10.51
2019-03-24T08:18:11.460Z,10.79
2019-03-24T08:20:43.900Z,10.60
2019-03-24T08:23:13.599Z,10.77
2019-03-24T08:25:43.421Z,10.93
2019-03-24T08:28:13.246Z,11.02
2019-03-24T08:30:42.714Z,11.26
2019-03-24T08:33:12.245Z,11.41
2019-03-24T08:35:41.695Z,11.32
2019-03-24T08:38:11.194Z,11.20
2019-03-24T08:40:40.695Z,10.79
2019-03-24T08:43:10.164Z,11.11
2019-03-24T08:45:39.628Z,11.12
2019-03-24T08:48:09.103Z,10.96
2019-03-24T08:50:38.555Z,10.92
2019-03-24T08:53:08.025Z,10.91
2019-03-24T08:55:37.481Z,10.88
2019-03-24T08:58:07.226Z,10.96
2019-03-24T09:00:36.756Z,11.13
2019-03-24T09:03:06.274Z,10.87
2019-03-24T09:05:35.737Z,11.09
2019-03-24T09:08:05.197Z,11.22
2019-03-24T09:10:34.735Z,11.10
2019-03-24T09:13:04.207Z,11.21
2019-03-24T09:15:33.731Z,11.23
2019-03-24T09:18:03.190Z,11.55
2019-03-24T09:20:41.314Z,11.25
2019-03-24T09:23:03.981Z,11.37
2019-03-24T09:25:33.477Z,11.56
2019-03-24T09:28:02.992Z,11.75
2019-03-24T09:30:36.585Z,11.89
2019-03-24T09:33:06.371Z,11.98
2019-03-24T09:35:35.913Z,12.14
2019-03-24T09:38:05.460Z,12.01
2019-03-24T09:40:35.835Z,12.08
2019-03-24T09:43:05.886Z,12.06
2019-03-24T09:45:35.339Z,11.75
2019-03-24T09:48:05.267Z,11.99
2019-03-24T09:50:35.080Z,12.16
2019-03-24T09:53:06.846Z,11.59
2019-03-24T09:55:38.525Z,11.87
2019-03-24T09:58:11.684Z,11.86
2019-03-24T10:00:47.616Z,11.86
2019-03-24T10:03:15.985Z,12.01
2019-03-24T10:05:47.297Z,12.55
2019-03-24T10:08:21.913Z,12.56
2019-03-24T10:10:51.585Z,11.91
2019-03-24T10:13:21.045Z,11.93
2019-03-24T10:15:50.514Z,12.21
2019-03-24T10:18:19.981Z,12.53
2019-03-24T10:20:49.454Z,12.28
2019-03-24T10:23:18.920Z,11.91
2019-03-24T10:25:48.407Z,12.38
2019-03-24T10:28:18.232Z,12.62
2019-03-24T10:30:47.766Z,12.88
2019-03-24T10:33:17.213Z,13.06
2019-03-24T10:35:46.683Z,13.08
2019-03-24T10:38:16.143Z,12.84
2019-03-24T10:40:45.612Z,12.84
2019-03-24T10:43:15.089Z,13.35
2019-03-24T10:45:44.572Z,13.37
2019-03-24T10:48:14.384Z,12.94
2019-03-24T10:50:43.862Z,12.64
2019-03-24T10:53:13.310Z,12.66
2019-03-24T10:55:43.104Z,13.11
2019-03-24T10:58:12.631Z,12.71
2019-03-24T11:00:43.130Z,12.71
2019-03-24T11:03:12.944Z,12.21
2019-03-24T11:05:42.429Z,12.05
2019-03-24T11:08:11.894Z,11.90
2019-03-24T11:10:41.373Z,12.08
2019-03-24T11:13:10.838Z,12.61
2019-03-24T11:15:40.314Z,13.39
2019-03-24T11:18:09.790Z,13.94
2019-03-24T11:20:39.599Z,13.88
2019-03-24T11:23:09.399Z,13.95
2019-03-24T11:25:38.884Z,14.02
2019-03-24T11:28:08.337Z,14.22
2019-03-24T11:30:37.842Z,14.22
2019-03-24T11:33:07.401Z,13.69
2019-03-24T11:35:36.861Z,13.61
2019-03-24T11:38:06.325Z,13.35
2019-03-24T11:40:35.866Z,13.35
2019-03-24T11:43:05.417Z,13.88
2019-03-24T11:45:35.125Z,14.36
2019-03-24T11:48:04.606Z,14.63
2019-03-24T11:50:34.091Z,14.75
2019-03-24T11:53:03.618Z,14.75
2019-03-24T11:55:33.085Z,14.94
2019-03-24T11:58:06.135Z,14.88
2019-03-24T12:00:36.309Z,15.07
2019-03-24T12:03:05.780Z,15.07
2019-03-24T12:05:35.250Z,14.67
2019-03-24T12:08:05.153Z,14.85
2019-03-24T12:10:34.784Z,14.77
2019-03-24T12:13:04.246Z,14.38
2019-03-24T12:15:33.792Z,14.38
2019-03-24T12:18:03.561Z,13.76
2019-03-24T12:20:33.233Z,13.76
2019-03-24T12:23:02.695Z,13.51
2019-03-24T12:25:32.198Z,13.47
2019-03-24T12:28:01.660Z,13.47
2019-03-24T12:30:31.413Z,13.46
2019-03-24T12:33:00.870Z,13.36
2019-03-24T12:35:30.367Z,13.11
2019-03-24T12:37:59.834Z,13.22
2019-03-24T12:40:29.303Z,12.80
2019-03-24T12:42:58.782Z,12.56
2019-03-24T12:45:28.244Z,12.75
2019-03-24T12:47:57.893Z,12.92
2019-03-24T12:50:31.689Z,12.91
2019-03-24T12:52:58.991Z,12.84
2019-03-24T12:55:28.518Z,12.65
2019-03-24T12:57:58.057Z,12.79
2019-03-24T13:00:38.150Z,12.83
2019-03-24T13:03:07.822Z,13.07
2019-03-24T13:05:37.337Z,13.24
2019-03-24T13:08:15.207Z,13.34
2019-03-24T13:10:45.505Z,13.34
2019-03-24T13:13:14.958Z,13.26
2019-03-24T13:15:45.021Z,13.33
2019-03-24T13:18:14.498Z,13.00
2019-03-24T13:20:44.229Z,12.82
2019-03-24T13:23:13.718Z,12.87
2019-03-24T13:25:43.188Z,12.93
2019-03-24T13:28:12.754Z,12.73
2019-03-24T13:30:42.472Z,12.57
2019-03-24T13:33:11.938Z,12.32
2019-03-24T13:35:41.565Z,12.33
2019-03-24T13:38:11.060Z,12.27
2019-03-24T13:40:40.518Z,12.26
2019-03-24T13:43:10.036Z,12.17
2019-03-24T13:45:39.578Z,12.25
2019-03-24T13:48:09.047Z,12.34
2019-03-24T13:50:38.504Z,12.25
2019-03-24T13:53:08.442Z,12.07
2019-03-24T13:55:37.894Z,12.17
2019-03-24T13:58:08.241Z,12.19
2019-03-24T14:00:37.716Z,12.42
2019-03-24T14:03:07.186Z,12.38
2019-03-24T14:05:36.658Z,12.50
2019-03-24T14:08:06.131Z,12.47
2019-03-24T14:10:35.902Z,12.46
2019-03-24T14:13:05.379Z,12.56
2019-03-24T14:15:34.852Z,12.37
2019-03-24T14:18:04.631Z,12.21
2019-03-24T14:20:42.766Z,12.15
2019-03-24T14:23:05.270Z,11.89
2019-03-24T14:25:34.815Z,11.81
2019-03-24T14:28:04.297Z,11.78
2019-03-24T14:30:45.607Z,11.79
2019-03-24T14:33:15.167Z,11.82
2019-03-24T14:35:44.633Z,11.81
2019-03-24T14:38:14.119Z,11.88
2019-03-24T14:40:43.746Z,11.83
2019-03-24T14:43:13.622Z,11.72
2019-03-24T14:45:43.105Z,11.71
2019-03-24T14:48:12.600Z,11.72
2019-03-24T14:50:42.078Z,11.79
2019-03-24T14:53:11.612Z,11.73
2019-03-24T14:55:41.060Z,11.87
2019-03-24T14:58:10.527Z,11.77
2019-03-24T15:00:44.070Z,11.74
2019-03-24T15:03:13.603Z,11.67
2019-03-24T15:05:43.564Z,11.71
2019-03-24T15:08:13.116Z,11.62
2019-03-24T15:10:42.566Z,11.59
2019-03-24T15:13:13.419Z,11.41
2019-03-24T15:15:42.888Z,11.39
2019-03-24T15:18:12.392Z,11.35
2019-03-24T15:20:41.859Z,11.31
2019-03-24T15:23:11.357Z,11.29
2019-03-24T15:25:41.993Z,11.22
2019-03-24T15:28:11.550Z,11.29
2019-03-24T15:30:41.327Z,11.31
2019-03-24T15:33:10.850Z,11.31
2019-03-24T15:35:40.302Z,11.29
2019-03-24T15:38:09.862Z,11.26
2019-03-24T15:40:39.319Z,11.26
2019-03-24T15:43:08.887Z,11.08
2019-03-24T15:45:38.339Z,11.14
2019-03-24T15:48:07.815Z,11.23
2019-03-24T15:50:37.291Z,11.15
2019-03-24T15:53:06.758Z,11.13
2019-03-24T15:55:36.221Z,11.18
2019-03-24T15:58:05.956Z,11.17
2019-03-24T16:00:46.142Z,11.30
2019-03-24T16:03:15.636Z,11.38
2019-03-24T16:05:45.444Z,11.44
2019-03-24T16:08:15.234Z,11.42
2019-03-24T16:10:44.760Z,11.30
2019-03-24T16:13:14.480Z,11.44
2019-03-24T16:15:43.960Z,11.53
2019-03-24T16:18:13.401Z,11.50
2019-03-24T16:20:42.872Z,11.44
2019-03-24T16:23:12.375Z,11.38
2019-03-24T16:25:41.843Z,11.25
2019-03-24T16:28:11.337Z,11.10
2019-03-24T16:30:40.805Z,11.07
2019-03-24T16:33:16.436Z,11.09
2019-03-24T16:35:50.577Z,11.07
2019-03-24T16:38:27.424Z,11.00
2019-03-24T16:40:56.913Z,10.95
2019-03-24T16:43:26.835Z,10.87
2019-03-24T16:45:56.389Z,10.78
2019-03-24T16:48:36.195Z,10.73
2019-03-24T16:50:57.115Z,10.60
2019-03-24T16:53:26.613Z,10.58
2019-03-24T16:55:56.079Z,10.57
2019-03-24T16:58:25.744Z,10.58
2019-03-24T17:00:55.238Z,10.53
2019-03-24T17:03:24.733Z,10.49
2019-03-24T17:05:54.198Z,10.45
2019-03-24T17:08:23.677Z,10.42
2019-03-24T17:10:53.179Z,10.37
2019-03-24T17:13:22.686Z,10.32
2019-03-24T17:15:52.206Z,10.24
2019-03-24T17:18:21.694Z,10.08
2019-03-24T17:20:51.182Z,10.10
2019-03-24T17:23:20.656Z,10.05
2019-03-24T17:25:50.197Z,10.06
2019-03-24T17:28:20.036Z,10.07
2019-03-24T17:30:49.731Z,10.04
2019-03-24T17:33:19.225Z,10.01
2019-03-24T17:35:48.708Z,9.97
2019-03-24T17:38:18.184Z,9.92
2019-03-24T17:40:47.639Z,9.86
2019-03-24T17:43:17.374Z,9.81
2019-03-24T17:45:46.847Z,9.73
2019-03-24T17:48:16.369Z,9.73
2019-03-24T17:50:45.873Z,9.66
2019-03-24T17:53:15.344Z,9.63
2019-03-24T17:55:44.796Z,9.59
2019-03-24T17:58:14.269Z,9.48
2019-03-24T18:00:46.623Z,9.37
2019-03-24T18:03:16.117Z,9.34
2019-03-24T18:05:45.731Z,9.28
2019-03-24T18:08:15.224Z,9.23
2019-03-24T18:10:44.680Z,9.09
2019-03-24T18:13:14.315Z,8.92
2019-03-24T18:15:43.789Z,8.76
2019-03-24T18:18:13.274Z,8.63
2019-03-24T18:20:43.128Z,8.47
2019-03-24T18:23:13.607Z,8.30
2019-03-24T18:25:43.113Z,8.13
2019-03-24T18:28:12.994Z,8.02
2019-03-24T18:30:42.542Z,7.92
2019-03-24T18:33:12.032Z,7.83
2019-03-24T18:35:41.499Z,7.81
2019-03-24T18:38:11.037Z,7.77
2019-03-24T18:40:40.774Z,7.71
2019-03-24T18:43:10.227Z,7.59
2019-03-24T18:45:39.692Z,7.46
2019-03-24T18:48:09.650Z,7.35
2019-03-24T18:50:39.129Z,7.25
2019-03-24T18:53:12.726Z,7.21
2019-03-24T18:55:42.191Z,7.27
2019-03-24T18:58:11.671Z,7.35
2019-03-24T19:00:41.210Z,7.45
2019-03-24T19:03:10.666Z,7.48
2019-03-24T19:05:40.247Z,7.53
2019-03-24T19:08:09.709Z,7.64
2019-03-24T19:10:39.214Z,7.68
2019-03-24T19:13:08.674Z,7.71
2019-03-24T19:15:38.139Z,7.77
2019-03-24T19:18:07.590Z,7.71
2019-03-24T19:20:37.431Z,7.58
2019-03-24T19:23:06.940Z,7.48
2019-03-24T19:25:36.501Z,7.40
2019-03-24T19:28:06.263Z,7.37
2019-03-24T19:30:37.641Z,7.31
2019-03-24T19:33:07.149Z,7.25
2019-03-24T19:35:36.778Z,7.18
2019-03-24T19:38:06.281Z,7.09
2019-03-24T19:40:35.995Z,7.10
2019-03-24T19:43:05.688Z,7.08
2019-03-24T19:45:36.901Z,7.09
2019-03-24T19:48:06.484Z,7.07
2019-03-24T19:50:36.028Z,7.11
2019-03-24T19:53:05.741Z,7.12
2019-03-24T19:55:35.248Z,7.12
2019-03-24T19:58:05.090Z,7.17
2019-03-24T20:00:34.554Z,7.17
2019-03-24T20:03:04.399Z,7.21
2019-03-24T20:05:33.921Z,7.33
2019-03-24T20:08:03.366Z,7.39
2019-03-24T20:10:32.843Z,7.47
2019-03-24T20:13:02.294Z,7.50
2019-03-24T20:15:31.850Z,7.50
2019-03-24T20:18:01.649Z,7.42
2019-03-24T20:20:31.137Z,7.35
2019-03-24T20:23:00.622Z,7.25
2019-03-24T20:25:30.091Z,7.17
2019-03-24T20:27:59.802Z,7.10
2019-03-24T20:30:29.272Z,7.07
2019-03-24T20:33:02.174Z,7.11
2019-03-24T20:35:34.670Z,7.17
2019-03-24T20:38:12.581Z,7.26
2019-03-24T20:40:52.670Z,7.30
2019-03-24T20:43:30.377Z,7.36
2019-03-24T20:46:20.186Z,7.37
2019-03-24T20:48:43.623Z,7.30
2019-03-24T20:51:18.378Z,7.11
2019-03-24T20:53:53.888Z,6.92
2019-03-24T20:56:30.293Z,6.72
2019-03-24T20:59:09.169Z,6.60
2019-03-24T21:01:40.460Z,6.45
2019-03-24T21:04:09.936Z,6.27
2019-03-24T21:06:39.392Z,6.11
2019-03-24T21:09:09.546Z,6.03
2019-03-24T21:11:39.027Z,5.97
2019-03-24T21:14:08.770Z,5.96
2019-03-24T21:16:38.507Z,5.99
2019-03-24T21:19:08.396Z,6.04
2019-03-24T21:21:37.868Z,6.06
2019-03-24T21:24:07.329Z,6.05
2019-03-24T21:26:36.826Z,5.96
2019-03-24T21:29:06.313Z,5.91
2019-03-24T21:31:35.754Z,5.81
2019-03-24T21:34:05.225Z,5.74
2019-03-24T21:36:35.258Z,5.71
2019-03-24T21:39:07.044Z,5.71
2019-03-24T21:41:36.686Z,5.74
2019-03-24T21:44:06.145Z,5.90
2019-03-24T21:46:35.618Z,6.03
2019-03-24T21:49:05.101Z,6.26
2019-03-24T21:51:34.599Z,6.44
2019-03-24T21:54:04.045Z,6.56
2019-03-24T21:56:33.591Z,6.69
2019-03-24T21:59:03.361Z,6.71
2019-03-24T22:01:33.005Z,6.78
2019-03-24T22:04:02.465Z,6.88
2019-03-24T22:06:31.965Z,6.96
2019-03-24T22:09:01.420Z,7.04
2019-03-24T22:11:31.182Z,7.12
2019-03-24T22:14:00.631Z,7.14
2019-03-24T22:16:30.432Z,7.12
2019-03-24T22:18:59.905Z,7.19
2019-03-24T22:21:29.370Z,7.25
2019-03-24T22:23:58.986Z,7.26
2019-03-24T22:26:28.450Z,7.33
2019-03-24T22:28:57.923Z,7.33
2019-03-24T22:31:27.404Z,7.30
2019-03-24T22:33:56.866Z,7.29
2019-03-24T22:36:26.333Z,7.22
2019-03-24T22:38:55.793Z,7.10
2019-03-24T22:41:25.340Z,6.92
2019-03-24T22:43:54.796Z,6.73
2019-03-24T22:46:24.269Z,6.61
2019-03-24T22:48:53.904Z,6.46
2019-03-24T22:51:23.384Z,6.39
2019-03-24T22:54:03.016Z,6.26
2019-03-24T22:56:24.042Z,6.19
2019-03-24T22:58:53.523Z,6.11
2019-03-24T23:01:23.277Z,6.02
2019-03-24T23:03:52.738Z,5.97
2019-03-24T23:06:22.202Z,5.93
2019-03-24T23:08:51.726Z,5.85
2019-03-24T23:11:21.220Z,5.84
2019-03-24T23:13:50.689Z,5.85
2019-03-24T23:16:20.208Z,5.89
2019-03-24T23:18:49.666Z,5.90
2019-03-24T23:21:19.136Z,5.95
2019-03-24T23:23:48.619Z,5.95
2019-03-24T23:26:18.105Z,5.96
2019-03-24T23:28:47.727Z,5.95
2019-03-24T23:31:17.459Z,5.94
2019-03-24T23:33:46.916Z,5.92
2019-03-24T23:36:16.387Z,5.99
2019-03-24T23:38:45.842Z,6.02
2019-03-24T23:41:15.316Z,5.99
2019-03-24T23:43:44.817Z,6.01
2019-03-24T23:46:14.277Z,6.08
2019-03-24T23:48:44.073Z,6.20
2019-03-24T23:51:13.558Z,6.28
2019-03-24T23:53:43.024Z,6.41
2019-03-24T23:56:12.521Z,6.49
2019-03-24T23:58:41.988Z,6.52
